createdAt,value
2023-03-07T00:01:48.776Z,11.00
2023-03-07T00:04:16.056Z,11.00
2023-03-07T00:06:42.781Z,11.00
2023-03-07T00:09:09.746Z,11.00
2023-03-07T00:11:36.522Z,11.00
2023-03-07T00:14:06.722Z,11.00
2023-03-07T00:16:33.493Z,11.00
2023-03-07T00:19:00.936Z,11.00
2023-03-07T00:21:31.484Z,11.00
2023-03-07T00:23:58.259Z,11.00
2023-03-07T00:26:25.643Z,11.00
2023-03-07T00:28:53.486Z,10.90
2023-03-07T00:31:20.749Z,11.00
2023-03-07T00:33:47.630Z,11.00
2023-03-07T00:36:15.790Z,11.00
2023-03-07T00:38:42.884Z,11.00
2023-03-07T00:41:10.771Z,11.00
2023-03-07T00:43:37.566Z,11.00
2023-03-07T00:46:05.003Z,10.90
2023-03-07T00:48:35.959Z,11.00
2023-03-07T00:51:02.711Z,10.90
2023-03-07T00:53:29.520Z,11.00
2023-03-07T00:56:00.961Z,10.90
2023-03-07T00:58:28.497Z,11.00
2023-03-07T01:00:55.865Z,10.90
2023-03-07T01:03:23.536Z,10.90
2023-03-07T01:05:50.669Z,10.90
2023-03-07T01:08:18.021Z,10.90
2023-03-07T01:10:45.438Z,10.90
2023-03-07T01:13:12.596Z,10.90
2023-03-07T01:15:39.435Z,10.90
2023-03-07T01:18:06.950Z,10.90
2023-03-07T01:20:35.207Z,10.90
2023-03-07T01:23:02.286Z,10.90
2023-03-07T01:25:29.260Z,10.90
2023-03-07T01:27:56.181Z,10.90
2023-03-07T01:30:25.789Z,11.00
2023-03-07T01:33:00.334Z,10.90
2023-03-07T01:35:27.454Z,11.00
2023-03-07T01:37:54.700Z,10.90
2023-03-07T01:40:22.289Z,10.90
2023-03-07T01:42:49.042Z,10.90
2023-03-07T01:45:15.748Z,10.90
2023-03-07T01:47:43.674Z,10.90
2023-03-07T01:50:14.984Z,10.90
2023-03-07T01:52:53.591Z,10.90
2023-03-07T01:55:24.757Z,10.90
2023-03-07T01:57:52.218Z,10.90
2023-03-07T02:00:28.960Z,10.90
2023-03-07T02:03:00.402Z,10.90
2023-03-07T02:05:30.655Z,11.00
2023-03-07T02:08:00.340Z,10.90
2023-03-07T02:10:27.217Z,10.90
2023-03-07T02:12:54.380Z,10.90
2023-03-07T02:15:21.448Z,10.90
2023-03-07T02:17:48.263Z,10.90
2023-03-07T02:20:33.077Z,10.90
2023-03-07T02:22:59.896Z,10.90
2023-03-07T02:25:29.682Z,10.90
2023-03-07T02:27:57.315Z,10.90
2023-03-07T02:30:24.162Z,10.90
2023-03-07T02:32:50.887Z,10.90
2023-03-07T02:35:20.205Z,10.90
2023-03-07T02:37:49.474Z,10.90
2023-03-07T02:40:18.194Z,10.90
2023-03-07T02:42:45.954Z,10.90
2023-03-07T02:45:14.689Z,10.90
2023-03-07T02:47:42.997Z,10.90
2023-03-07T02:50:10.717Z,10.90
2023-03-07T02:52:37.810Z,10.90
2023-03-07T02:55:05.246Z,10.90
2023-03-07T02:57:32.028Z,10.90
2023-03-07T02:59:59.937Z,10.90
2023-03-07T03:02:26.730Z,10.90
2023-03-07T03:04:53.675Z,10.90
2023-03-07T03:07:20.461Z,10.90
2023-03-07T03:09:47.202Z,10.90
2023-03-07T03:12:13.973Z,10.90
2023-03-07T03:14:40.746Z,10.90
2023-03-07T03:17:07.535Z,10.90
2023-03-07T03:19:34.330Z,10.90
2023-03-07T03:22:01.046Z,10.90
2023-03-07T03:24:27.776Z,10.90
2023-03-07T03:26:58.017Z,10.90
2023-03-07T03:29:25.919Z,10.90
2023-03-07T03:31:53.552Z,10.90
2023-03-07T03:34:20.464Z,10.90
2023-03-07T03:36:47.213Z,10.90
2023-03-07T03:39:14.648Z,10.90
2023-03-07T03:41:41.403Z,10.90
2023-03-07T03:44:08.711Z,10.90
2023-03-07T03:46:35.944Z,10.90
2023-03-07T03:49:03.666Z,10.90
2023-03-07T03:51:30.656Z,10.90
2023-03-07T03:54:07.665Z,10.90
2023-03-07T03:56:34.439Z,10.90
2023-03-07T03:59:01.184Z,10.90
2023-03-07T04:01:28.564Z,10.90
2023-03-07T04:03:55.901Z,10.90
2023-03-07T04:06:24.184Z,10.90
2023-03-07T04:08:52.289Z,10.90
2023-03-07T04:11:19.637Z,10.90
2023-03-07T04:13:46.527Z,10.90
2023-03-07T04:16:13.730Z,10.90
2023-03-07T04:18:40.624Z,10.90
2023-03-07T04:21:07.579Z,10.90
2023-03-07T04:23:34.666Z,10.90
2023-03-07T04:26:02.102Z,10.90
2023-03-07T04:28:45.640Z,10.90
2023-03-07T04:31:19.516Z,10.90
2023-03-07T04:33:46.811Z,10.90
2023-03-07T04:36:16.314Z,10.80
2023-03-07T04:38:43.460Z,10.80
2023-03-07T04:41:17.720Z,10.90
2023-03-07T04:43:44.433Z,10.90
2023-03-07T04:46:12.539Z,10.90
2023-03-07T04:48:39.618Z,10.90
2023-03-07T04:51:06.393Z,10.90
2023-03-07T04:53:33.147Z,10.90
2023-03-07T04:56:00.822Z,10.90
2023-03-07T04:58:28.314Z,10.90
2023-03-07T05:00:56.926Z,10.90
2023-03-07T05:03:24.440Z,10.80
2023-03-07T05:05:51.297Z,10.90
2023-03-07T05:08:18.138Z,10.90
2023-03-07T05:10:45.074Z,10.90
2023-03-07T05:13:11.917Z,10.90
2023-03-07T05:15:38.694Z,10.80
2023-03-07T05:18:05.527Z,10.90
2023-03-07T05:20:33.219Z,10.80
2023-03-07T05:23:00.019Z,10.90
2023-03-07T05:25:26.916Z,10.80
2023-03-07T05:27:53.782Z,10.80
2023-03-07T05:30:21.820Z,10.90
2023-03-07T05:32:48.726Z,10.90
2023-03-07T05:35:16.151Z,10.90
2023-03-07T05:37:43.017Z,10.90
2023-03-07T05:40:10.689Z,10.90
2023-03-07T05:42:37.485Z,10.90
2023-03-07T05:45:05.931Z,10.90
2023-03-07T05:47:32.826Z,10.90
2023-03-07T05:49:59.625Z,10.90
2023-03-07T05:52:26.782Z,10.80
2023-03-07T05:54:53.524Z,10.90
2023-03-07T05:57:20.490Z,10.90
2023-03-07T05:59:47.238Z,10.90
2023-03-07T06:02:14.248Z,10.90
2023-03-07T06:04:41.053Z,10.90
2023-03-07T06:07:07.851Z,10.80
2023-03-07T06:09:35.255Z,10.90
2023-03-07T06:12:02.010Z,10.90
2023-03-07T06:14:37.456Z,10.80
2023-03-07T06:17:07.227Z,10.90
2023-03-07T06:19:34.212Z,10.90
2023-03-07T06:22:01.049Z,10.90
2023-03-07T06:24:27.818Z,10.90
2023-03-07T06:26:54.688Z,10.90
2023-03-07T06:29:21.458Z,10.90
2023-03-07T06:31:48.395Z,10.90
2023-03-07T06:34:15.132Z,10.90
2023-03-07T06:36:41.892Z,10.90
2023-03-07T06:39:08.778Z,10.90
2023-03-07T06:41:35.585Z,10.90
2023-03-07T06:44:02.352Z,10.90
2023-03-07T06:46:29.208Z,10.90
2023-03-07T06:48:56.548Z,10.90
2023-03-07T06:51:23.294Z,10.90
2023-03-07T06:53:50.164Z,10.90
2023-03-07T06:56:16.869Z,11.00
2023-03-07T06:58:43.601Z,11.00
2023-03-07T07:01:20.815Z,11.00
2023-03-07T07:03:47.570Z,11.00
2023-03-07T07:06:14.587Z,11.00
2023-03-07T07:08:41.462Z,11.00
2023-03-07T07:11:08.265Z,11.10
2023-03-07T07:13:35.082Z,11.10
2023-03-07T07:16:08.866Z,11.10
2023-03-07T07:18:35.842Z,11.10
2023-03-07T07:21:02.557Z,11.10
2023-03-07T07:23:29.577Z,11.10
2023-03-07T07:25:56.333Z,11.10
2023-03-07T07:28:23.178Z,11.10
2023-03-07T07:30:50.250Z,11.10
2023-03-07T07:33:17.095Z,11.10
2023-03-07T07:35:44.259Z,11.10
2023-03-07T07:38:11.429Z,11.10
2023-03-07T07:40:38.175Z,11.10
2023-03-07T07:43:05.082Z,11.10
2023-03-07T07:45:31.998Z,11.10
2023-03-07T07:47:58.731Z,11.10
2023-03-07T07:50:25.434Z,11.10
2023-03-07T07:52:53.130Z,11.10
2023-03-07T07:55:19.968Z,11.10
2023-03-07T07:57:46.705Z,11.10
2023-03-07T08:00:14.293Z,11.00
2023-03-07T08:02:41.151Z,11.00
2023-03-07T08:05:10.254Z,11.00
2023-03-07T08:07:37.332Z,11.00
2023-03-07T08:10:04.204Z,11.00
2023-03-07T08:12:30.946Z,11.00
2023-03-07T08:14:57.820Z,11.10
2023-03-07T08:17:24.597Z,11.10
2023-03-07T08:19:51.340Z,11.10
2023-03-07T08:22:19.639Z,11.10
2023-03-07T08:24:46.648Z,11.10
2023-03-07T08:27:13.560Z,11.10
2023-03-07T08:29:40.373Z,11.10
2023-03-07T08:32:07.272Z,11.10
2023-03-07T08:34:34.238Z,11.10
2023-03-07T08:37:01.065Z,11.20
2023-03-07T08:39:27.822Z,11.10
2023-03-07T08:41:55.374Z,11.20
2023-03-07T08:44:22.156Z,11.20
2023-03-07T08:46:48.882Z,11.10
2023-03-07T08:49:15.649Z,11.20
2023-03-07T08:51:42.372Z,11.20
2023-03-07T08:54:09.122Z,11.20
2023-03-07T08:56:35.865Z,11.10
2023-03-07T08:59:02.662Z,11.20
2023-03-07T09:01:29.482Z,11.30
2023-03-07T09:03:56.280Z,11.20
2023-03-07T09:06:23.298Z,11.30
2023-03-07T09:08:50.382Z,11.50
2023-03-07T09:11:18.003Z,11.50
2023-03-07T09:13:51.801Z,11.50
2023-03-07T09:16:19.555Z,11.50
2023-03-07T09:18:46.433Z,11.60
2023-03-07T09:21:13.204Z,11.70
2023-03-07T09:23:39.969Z,11.60
2023-03-07T09:26:06.823Z,11.60
2023-03-07T09:28:33.604Z,11.70
2023-03-07T09:31:00.584Z,11.70
2023-03-07T09:33:27.605Z,11.70
2023-03-07T09:35:54.381Z,11.80
2023-03-07T09:38:21.144Z,11.70
2023-03-07T09:40:48.521Z,11.70
2023-03-07T09:43:26.811Z,11.90
2023-03-07T09:46:12.329Z,12.30
2023-03-07T09:48:45.349Z,12.80
2023-03-07T09:51:24.390Z,12.80
2023-03-07T09:53:54.232Z,13.00
2023-03-07T09:56:32.825Z,13.20
2023-03-07T09:59:24.107Z,13.20
2023-03-07T10:01:52.758Z,12.80
2023-03-07T10:04:22.039Z,12.60
2023-03-07T10:06:52.746Z,12.70
2023-03-07T10:09:22.330Z,12.80
2023-03-07T10:11:49.116Z,13.00
2023-03-07T10:14:22.198Z,12.50
2023-03-07T10:17:27.798Z,12.30
2023-03-07T10:20:00.008Z,12.80
2023-03-07T10:22:55.944Z,12.90
2023-03-07T10:25:29.617Z,13.00
2023-03-07T10:28:00.855Z,12.50
2023-03-07T10:30:31.382Z,12.40
2023-03-07T10:33:01.160Z,12.50
2023-03-07T10:35:40.883Z,12.30
2023-03-07T10:38:10.535Z,12.40
2023-03-07T10:40:42.335Z,12.30
2023-03-07T10:43:17.419Z,12.40
2023-03-07T10:45:44.244Z,12.30
2023-03-07T10:48:17.252Z,12.20
2023-03-07T10:51:04.360Z,12.20
2023-03-07T10:53:32.975Z,12.20
2023-03-07T10:56:18.821Z,12.30
2023-03-07T10:59:00.534Z,12.50
2023-03-07T11:01:28.307Z,12.80
2023-03-07T11:03:59.679Z,12.60
2023-03-07T11:06:35.686Z,12.90
2023-03-07T11:09:12.806Z,13.00
2023-03-07T11:11:39.581Z,13.10
2023-03-07T11:14:13.331Z,13.20
2023-03-07T11:16:47.580Z,13.10
2023-03-07T11:19:26.442Z,12.70
2023-03-07T11:21:55.038Z,12.60
2023-03-07T11:24:26.839Z,12.80
2023-03-07T11:26:54.475Z,12.60
2023-03-07T11:29:21.221Z,12.50
2023-03-07T11:31:51.026Z,12.60
2023-03-07T11:34:36.681Z,13.00
2023-03-07T11:37:12.030Z,13.20
2023-03-07T11:39:43.878Z,13.10
2023-03-07T11:42:22.538Z,13.20
2023-03-07T11:45:09.052Z,13.20
2023-03-07T11:47:35.742Z,13.20
2023-03-07T11:50:12.192Z,13.30
2023-03-07T11:52:48.696Z,13.20
2023-03-07T11:55:24.943Z,13.20
2023-03-07T11:58:10.300Z,12.80
2023-03-07T12:00:49.154Z,12.80
2023-03-07T12:03:15.871Z,12.90
2023-03-07T12:05:47.158Z,12.90
2023-03-07T12:08:32.586Z,12.80
2023-03-07T12:11:02.155Z,12.80
2023-03-07T12:13:38.260Z,12.90
2023-03-07T12:16:25.647Z,12.60
2023-03-07T12:18:58.501Z,12.70
2023-03-07T12:21:37.444Z,12.70
2023-03-07T12:24:07.800Z,12.70
2023-03-07T12:26:57.894Z,12.70
2023-03-07T12:29:24.646Z,12.60
2023-03-07T12:31:53.946Z,12.60
2023-03-07T12:34:30.523Z,12.60
2023-03-07T12:37:02.825Z,12.60
2023-03-07T12:39:32.454Z,12.90
2023-03-07T12:41:59.217Z,12.80
2023-03-07T12:44:35.016Z,12.70
2023-03-07T12:47:04.881Z,12.70
2023-03-07T12:49:52.048Z,12.70
2023-03-07T12:52:33.958Z,12.70
2023-03-07T12:55:19.336Z,12.60
2023-03-07T12:57:50.984Z,12.60
2023-03-07T13:00:19.422Z,12.60
2023-03-07T13:02:49.710Z,12.70
2023-03-07T13:05:18.515Z,12.70
2023-03-07T13:07:45.822Z,12.70
2023-03-07T13:10:15.216Z,12.70
2023-03-07T13:12:41.915Z,12.60
2023-03-07T13:15:17.696Z,12.60
2023-03-07T13:17:44.618Z,12.70
2023-03-07T13:20:30.983Z,12.80
2023-03-07T13:22:59.092Z,12.90
2023-03-07T13:25:27.306Z,13.30
2023-03-07T13:27:55.329Z,13.30
2023-03-07T13:30:23.376Z,13.40
2023-03-07T13:32:54.408Z,13.30
2023-03-07T13:35:39.392Z,13.20
2023-03-07T13:38:15.369Z,13.30
2023-03-07T13:40:46.364Z,13.20
2023-03-07T13:43:18.907Z,13.10
2023-03-07T13:45:48.840Z,13.40
2023-03-07T13:48:21.507Z,13.40
2023-03-07T13:50:48.205Z,13.50
2023-03-07T13:53:20.177Z,13.50
2023-03-07T13:56:05.493Z,13.40
2023-03-07T13:58:47.046Z,13.40
2023-03-07T14:01:16.486Z,13.70
2023-03-07T14:04:06.618Z,13.50
2023-03-07T14:06:33.355Z,13.40
2023-03-07T14:09:02.539Z,13.90
2023-03-07T14:11:42.860Z,13.80
2023-03-07T14:14:09.564Z,13.80
2023-03-07T14:16:54.919Z,13.60
2023-03-07T14:19:21.674Z,13.20
2023-03-07T14:21:54.244Z,12.90
2023-03-07T14:24:30.206Z,12.70
2023-03-07T14:26:58.229Z,12.60
2023-03-07T14:29:26.065Z,12.50
2023-03-07T14:31:54.617Z,12.40
2023-03-07T14:34:21.323Z,12.40
2023-03-07T14:36:58.936Z,12.30
2023-03-07T14:39:29.558Z,12.30
2023-03-07T14:42:04.798Z,12.30
2023-03-07T14:44:43.850Z,12.20
2023-03-07T14:47:29.142Z,12.20
2023-03-07T14:50:02.063Z,12.20
2023-03-07T14:52:31.802Z,12.20
2023-03-07T14:55:00.802Z,12.20
2023-03-07T14:57:31.395Z,12.10
2023-03-07T15:00:04.679Z,12.10
2023-03-07T15:02:31.465Z,12.10
2023-03-07T15:04:58.205Z,12.10
2023-03-07T15:07:24.900Z,12.00
2023-03-07T15:09:51.703Z,12.00
2023-03-07T15:12:20.967Z,12.00
2023-03-07T15:14:50.456Z,12.00
2023-03-07T15:17:19.946Z,12.00
2023-03-07T15:19:49.443Z,11.90
2023-03-07T15:22:18.519Z,11.90
2023-03-07T15:24:46.288Z,11.90
2023-03-07T15:27:13.915Z,11.90
2023-03-07T15:29:47.483Z,11.90
2023-03-07T15:32:29.321Z,11.90
2023-03-07T15:35:03.659Z,11.90
2023-03-07T15:37:33.002Z,11.80
2023-03-07T15:40:08.914Z,11.80
2023-03-07T15:42:50.714Z,11.80
2023-03-07T15:45:28.186Z,11.80
2023-03-07T15:47:55.200Z,11.80
2023-03-07T15:50:23.611Z,11.80
2023-03-07T15:52:52.169Z,11.80
2023-03-07T15:55:20.729Z,11.80
2023-03-07T15:57:51.976Z,11.80
2023-03-07T16:00:38.315Z,11.70
2023-03-07T16:03:17.405Z,11.70
2023-03-07T16:05:44.254Z,11.70
2023-03-07T16:08:13.151Z,11.70
2023-03-07T16:10:44.459Z,11.70
2023-03-07T16:13:12.655Z,11.70
2023-03-07T16:15:39.402Z,11.70
2023-03-07T16:18:06.277Z,11.70
2023-03-07T16:20:33.020Z,11.70
2023-03-07T16:22:59.916Z,11.70
2023-03-07T16:25:28.252Z,11.70
2023-03-07T16:27:56.752Z,11.70
2023-03-07T16:30:25.048Z,11.70
2023-03-07T16:32:52.108Z,11.60
2023-03-07T16:35:20.036Z,11.60
2023-03-07T16:37:47.192Z,11.60
2023-03-07T16:40:15.344Z,11.60
2023-03-07T16:42:43.367Z,11.60
2023-03-07T16:45:15.564Z,11.60
2023-03-07T16:47:42.301Z,11.60
2023-03-07T16:50:13.093Z,11.60
2023-03-07T16:52:39.875Z,11.60
2023-03-07T16:55:06.977Z,11.60
2023-03-07T16:57:33.953Z,11.60
2023-03-07T17:00:00.839Z,11.60
2023-03-07T17:02:27.687Z,11.60
2023-03-07T17:04:54.479Z,11.60
2023-03-07T17:07:22.816Z,11.60
2023-03-07T17:09:49.906Z,11.50
2023-03-07T17:12:18.017Z,11.50
2023-03-07T17:14:45.130Z,11.60
2023-03-07T17:17:18.200Z,11.50
2023-03-07T17:19:44.922Z,11.60
2023-03-07T17:22:11.681Z,11.50
2023-03-07T17:24:40.299Z,11.60
2023-03-07T17:27:07.003Z,11.60
2023-03-07T17:29:36.452Z,11.60
2023-03-07T17:32:04.100Z,11.60
2023-03-07T17:34:32.121Z,11.60
2023-03-07T17:37:00.344Z,11.50
2023-03-07T17:39:29.468Z,11.50
2023-03-07T17:41:56.570Z,11.50
2023-03-07T17:44:23.517Z,11.50
2023-03-07T17:46:51.273Z,11.60
2023-03-07T17:49:18.225Z,11.60
2023-03-07T17:51:45.034Z,11.60
2023-03-07T17:54:11.745Z,11.50
2023-03-07T17:56:38.570Z,11.60
2023-03-07T17:59:05.503Z,11.60
2023-03-07T18:01:33.096Z,11.50
2023-03-07T18:04:00.185Z,11.60
2023-03-07T18:06:27.081Z,11.50
2023-03-07T18:08:53.941Z,11.50
2023-03-07T18:11:21.395Z,11.50
2023-03-07T18:13:48.251Z,11.50
2023-03-07T18:16:15.127Z,11.50
2023-03-07T18:18:57.685Z,11.50
2023-03-07T18:21:26.618Z,11.50
2023-03-07T18:23:53.549Z,11.50
2023-03-07T18:26:21.114Z,11.50
2023-03-07T18:28:49.207Z,11.50
2023-03-07T18:31:17.831Z,11.50
2023-03-07T18:33:46.529Z,11.50
2023-03-07T18:36:16.361Z,11.50
2023-03-07T18:38:43.520Z,11.50
2023-03-07T18:41:12.328Z,11.50
2023-03-07T18:43:54.961Z,11.50
2023-03-07T18:46:22.580Z,11.50
2023-03-07T18:48:49.900Z,11.50
2023-03-07T18:51:18.350Z,11.50
2023-03-07T18:53:45.465Z,11.50
2023-03-07T18:56:13.558Z,11.50
2023-03-07T18:58:40.797Z,11.50
2023-03-07T19:01:10.573Z,11.50
2023-03-07T19:03:37.402Z,11.50
2023-03-07T19:06:07.704Z,11.40
2023-03-07T19:08:36.913Z,11.50
2023-03-07T19:11:05.600Z,11.50
2023-03-07T19:13:34.816Z,11.50
2023-03-07T19:16:06.752Z,11.40
2023-03-07T19:18:36.211Z,11.50
2023-03-07T19:21:11.725Z,11.40
2023-03-07T19:23:39.858Z,11.40
2023-03-07T19:26:09.023Z,11.40
2023-03-07T19:28:36.973Z,11.40
2023-03-07T19:31:08.345Z,11.40
2023-03-07T19:33:35.828Z,11.40
2023-03-07T19:36:04.318Z,11.40
2023-03-07T19:38:31.285Z,11.40
2023-03-07T19:40:59.180Z,11.40
2023-03-07T19:43:26.807Z,11.40
2023-03-07T19:45:55.562Z,11.40
2023-03-07T19:48:22.983Z,11.50
2023-03-07T19:50:50.463Z,11.50
2023-03-07T19:53:17.336Z,11.40
2023-03-07T19:55:44.073Z,11.50
2023-03-07T19:58:10.851Z,11.40
2023-03-07T20:00:38.148Z,11.40
2023-03-07T20:03:04.990Z,11.40
2023-03-07T20:05:31.841Z,11.40
2023-03-07T20:07:58.769Z,11.40
2023-03-07T20:10:25.540Z,11.40
2023-03-07T20:12:53.291Z,11.40
2023-03-07T20:15:20.137Z,11.40
2023-03-07T20:17:46.966Z,11.40
2023-03-07T20:20:13.812Z,11.40
2023-03-07T20:22:42.399Z,11.40
2023-03-07T20:25:09.770Z,11.40
2023-03-07T20:27:36.611Z,11.40
2023-03-07T20:30:04.179Z,11.40
2023-03-07T20:32:31.036Z,11.40
2023-03-07T20:35:03.381Z,11.40
2023-03-07T20:37:32.890Z,11.40
2023-03-07T20:40:02.188Z,11.40
2023-03-07T20:42:30.389Z,11.40
2023-03-07T20:44:57.275Z,11.40
2023-03-07T20:47:24.053Z,11.40
2023-03-07T20:49:51.440Z,11.40
2023-03-07T20:52:18.315Z,11.40
2023-03-07T20:54:45.111Z,11.40
2023-03-07T20:57:11.856Z,11.40
2023-03-07T20:59:38.640Z,11.40
2023-03-07T21:02:05.746Z,11.40
2023-03-07T21:04:32.562Z,11.40
2023-03-07T21:06:59.530Z,11.40
2023-03-07T21:09:26.272Z,11.40
2023-03-07T21:11:53.029Z,11.40
2023-03-07T21:14:20.433Z,11.40
2023-03-07T21:16:47.291Z,11.40
2023-03-07T21:19:14.420Z,11.40
2023-03-07T21:21:41.921Z,11.40
2023-03-07T21:24:08.940Z,11.40
2023-03-07T21:26:36.475Z,11.50
2023-03-07T21:29:09.000Z,11.50
2023-03-07T21:31:36.353Z,11.40
2023-03-07T21:34:04.716Z,11.40
2023-03-07T21:36:32.177Z,11.40
2023-03-07T21:38:59.416Z,11.40
2023-03-07T21:41:26.603Z,11.40
2023-03-07T21:43:54.376Z,11.40
2023-03-07T21:46:21.357Z,11.40
2023-03-07T21:48:48.394Z,11.40
2023-03-07T21:51:15.335Z,11.40
2023-03-07T21:53:42.085Z,11.40
2023-03-07T21:56:10.203Z,11.40
2023-03-07T21:58:37.423Z,11.40
2023-03-07T22:01:18.320Z,11.40
2023-03-07T22:03:45.300Z,11.40
2023-03-07T22:06:13.798Z,11.40
2023-03-07T22:08:40.699Z,11.40
2023-03-07T22:11:09.159Z,11.40
2023-03-07T22:13:37.021Z,11.40
2023-03-07T22:16:05.062Z,11.40
2023-03-07T22:18:33.166Z,11.40
2023-03-07T22:21:00.215Z,11.40
2023-03-07T22:23:26.971Z,11.40
2023-03-07T22:25:54.148Z,11.40
2023-03-07T22:28:21.042Z,11.40
2023-03-07T22:30:49.333Z,11.40
2023-03-07T22:33:16.665Z,11.40
2023-03-07T22:35:43.652Z,11.40
2023-03-07T22:38:10.375Z,11.40
2023-03-07T22:40:40.360Z,11.40
2023-03-07T22:43:07.187Z,11.40
2023-03-07T22:45:33.941Z,11.40
2023-03-07T22:48:00.948Z,11.40
2023-03-07T22:50:28.888Z,11.40
2023-03-07T22:52:55.669Z,11.40
2023-03-07T22:55:22.689Z,11.40
2023-03-07T22:57:49.451Z,11.40
2023-03-07T23:00:16.310Z,11.40
2023-03-07T23:02:43.252Z,11.40
2023-03-07T23:05:10.138Z,11.30
2023-03-07T23:07:37.220Z,11.40
2023-03-07T23:10:04.171Z,11.40
2023-03-07T23:12:30.950Z,11.40
2023-03-07T23:14:57.726Z,11.40
2023-03-07T23:17:24.610Z,11.40
2023-03-07T23:19:51.990Z,11.40
2023-03-07T23:22:18.749Z,11.40
2023-03-07T23:24:45.529Z,11.40
2023-03-07T23:27:12.291Z,11.40
2023-03-07T23:29:39.041Z,11.40
2023-03-07T23:32:05.912Z,11.40
2023-03-07T23:34:32.807Z,11.40
2023-03-07T23:36:59.759Z,11.40
2023-03-07T23:39:26.692Z,11.40
2023-03-07T23:41:53.516Z,11.40
2023-03-07T23:44:20.210Z,11.40
2023-03-07T23:46:46.969Z,11.40
2023-03-07T23:49:13.808Z,11.40
2023-03-07T23:51:40.567Z,11.40
2023-03-07T23:54:07.370Z,11.40
2023-03-07T23:56:34.073Z,11.40
2023-03-07T23:59:00.798Z,11.30
